sensor_id;sensor_type;location;lat;lon;timestamp;temperature;humidity
77039;DHT22;65970;50.476;4.840;2024-01-27T00:01:08;6.70;33.50
77039;DHT22;65970;50.476;4.840;2024-01-27T00:06:08;6.70;33.40
77039;DHT22;65970;50.476;4.840;2024-01-27T00:11:11;6.60;33.10
77039;DHT22;65970;50.476;4.840;2024-01-27T00:16:11;6.60;33.50
77039;DHT22;65970;50.476;4.840;2024-01-27T00:21:12;6.50;33.30
77039;DHT22;65970;50.476;4.840;2024-01-27T00:26:13;6.50;33.20
77039;DHT22;65970;50.476;4.840;2024-01-27T00:31:13;6.40;33.20
77039;DHT22;65970;50.476;4.840;2024-01-27T00:36:14;6.40;33.40
77039;DHT22;65970;50.476;4.840;2024-01-27T00:41:18;6.30;33.10
77039;DHT22;65970;50.476;4.840;2024-01-27T00:46:18;6.30;33.60
77039;DHT22;65970;50.476;4.840;2024-01-27T00:51:19;6.20;33.00
77039;DHT22;65970;50.476;4.840;2024-01-27T00:56:19;6.20;32.60
77039;DHT22;65970;50.476;4.840;2024-01-27T01:01:20;6.20;33.70
77039;DHT22;65970;50.476;4.840;2024-01-27T01:06:21;6.10;33.90
77039;DHT22;65970;50.476;4.840;2024-01-27T01:11:22;6.10;33.60
77039;DHT22;65970;50.476;4.840;2024-01-27T01:16:22;6.00;33.70
77039;DHT22;65970;50.476;4.840;2024-01-27T01:21:23;6.00;33.60
77039;DHT22;65970;50.476;4.840;2024-01-27T01:26:24;6.00;33.60
77039;DHT22;65970;50.476;4.840;2024-01-27T01:31:25;5.90;33.60
77039;DHT22;65970;50.476;4.840;2024-01-27T01:36:25;5.90;33.90
77039;DHT22;65970;50.476;4.840;2024-01-27T01:41:26;5.90;34.00
77039;DHT22;65970;50.476;4.840;2024-01-27T01:46:27;5.80;33.30
77039;DHT22;65970;50.476;4.840;2024-01-27T01:51:27;5.80;33.60
77039;DHT22;65970;50.476;4.840;2024-01-27T01:56:28;5.80;34.00
77039;DHT22;65970;50.476;4.840;2024-01-27T02:01:29;5.70;33.80
77039;DHT22;65970;50.476;4.840;2024-01-27T02:06:29;5.70;33.60
77039;DHT22;65970;50.476;4.840;2024-01-27T02:11:30;5.60;33.60
77039;DHT22;65970;50.476;4.840;2024-01-27T02:16:30;5.60;33.80
77039;DHT22;65970;50.476;4.840;2024-01-27T02:21:31;5.60;34.00
77039;DHT22;65970;50.476;4.840;2024-01-27T02:26:31;5.50;33.70
77039;DHT22;65970;50.476;4.840;2024-01-27T02:31:32;5.50;33.90
77039;DHT22;65970;50.476;4.840;2024-01-27T02:36:33;5.50;34.30
77039;DHT22;65970;50.476;4.840;2024-01-27T02:41:34;5.40;34.20
77039;DHT22;65970;50.476;4.840;2024-01-27T02:46:34;5.40;34.40
77039;DHT22;65970;50.476;4.840;2024-01-27T02:51:35;5.40;33.10
77039;DHT22;65970;50.476;4.840;2024-01-27T02:56:35;5.40;34.40
77039;DHT22;65970;50.476;4.840;2024-01-27T03:01:36;5.30;34.50
77039;DHT22;65970;50.476;4.840;2024-01-27T03:06:36;5.30;34.70
77039;DHT22;65970;50.476;4.840;2024-01-27T03:11:38;5.30;34.70
77039;DHT22;65970;50.476;4.840;2024-01-27T03:16:39;5.30;34.50
77039;DHT22;65970;50.476;4.840;2024-01-27T03:21:39;5.20;34.60
77039;DHT22;65970;50.476;4.840;2024-01-27T03:26:40;5.20;34.70
77039;DHT22;65970;50.476;4.840;2024-01-27T03:31:40;5.20;34.80
77039;DHT22;65970;50.476;4.840;2024-01-27T03:36:41;5.20;34.60
77039;DHT22;65970;50.476;4.840;2024-01-27T03:41:41;5.10;34.50
77039;DHT22;65970;50.476;4.840;2024-01-27T03:46:42;5.10;33.90
77039;DHT22;65970;50.476;4.840;2024-01-27T03:51:42;5.10;35.20
77039;DHT22;65970;50.476;4.840;2024-01-27T03:56:43;5.00;34.90
77039;DHT22;65970;50.476;4.840;2024-01-27T04:01:44;5.00;34.80
77039;DHT22;65970;50.476;4.840;2024-01-27T04:06:44;5.00;35.10
77039;DHT22;65970;50.476;4.840;2024-01-27T04:11:45;5.00;34.00
77039;DHT22;65970;50.476;4.840;2024-01-27T04:16:45;4.90;35.00
77039;DHT22;65970;50.476;4.840;2024-01-27T04:21:46;4.90;35.10
77039;DHT22;65970;50.476;4.840;2024-01-27T04:26:47;4.90;35.40
77039;DHT22;65970;50.476;4.840;2024-01-27T04:31:48;4.90;35.20
77039;DHT22;65970;50.476;4.840;2024-01-27T04:36:48;4.80;34.90
77039;DHT22;65970;50.476;4.840;2024-01-27T04:41:49;4.80;35.10
77039;DHT22;65970;50.476;4.840;2024-01-27T04:46:49;4.80;35.40
77039;DHT22;65970;50.476;4.840;2024-01-27T04:51:50;4.70;35.30
77039;DHT22;65970;50.476;4.840;2024-01-27T04:56:51;4.70;35.40
77039;DHT22;65970;50.476;4.840;2024-01-27T05:01:51;4.70;35.40
77039;DHT22;65970;50.476;4.840;2024-01-27T05:06:52;4.70;35.90
77039;DHT22;65970;50.476;4.840;2024-01-27T05:11:52;4.60;35.80
77039;DHT22;65970;50.476;4.840;2024-01-27T05:16:53;4.60;36.00
77039;DHT22;65970;50.476;4.840;2024-01-27T05:21:53;4.60;36.10
77039;DHT22;65970;50.476;4.840;2024-01-27T05:26:54;4.60;35.40
77039;DHT22;65970;50.476;4.840;2024-01-27T05:31:55;4.50;36.30
77039;DHT22;65970;50.476;4.840;2024-01-27T05:36:55;4.50;36.60
77039;DHT22;65970;50.476;4.840;2024-01-27T05:41:56;4.40;36.60
77039;DHT22;65970;50.476;4.840;2024-01-27T05:46:56;4.40;36.90
77039;DHT22;65970;50.476;4.840;2024-01-27T05:51:57;4.40;36.80
77039;DHT22;65970;50.476;4.840;2024-01-27T05:56:58;4.40;36.60
77039;DHT22;65970;50.476;4.840;2024-01-27T06:01:58;4.30;36.80
77039;DHT22;65970;50.476;4.840;2024-01-27T06:06:59;4.30;37.00
77039;DHT22;65970;50.476;4.840;2024-01-27T06:12:00;4.30;37.10
77039;DHT22;65970;50.476;4.840;2024-01-27T06:17:03;4.30;37.30
77039;DHT22;65970;50.476;4.840;2024-01-27T06:22:04;4.20;37.20
77039;DHT22;65970;50.476;4.840;2024-01-27T06:27:04;4.20;36.90
77039;DHT22;65970;50.476;4.840;2024-01-27T06:32:05;4.20;36.80
77039;DHT22;65970;50.476;4.840;2024-01-27T06:37:05;4.20;36.80
77039;DHT22;65970;50.476;4.840;2024-01-27T06:42:06;4.10;37.10
77039;DHT22;65970;50.476;4.840;2024-01-27T06:47:06;4.10;37.30
77039;DHT22;65970;50.476;4.840;2024-01-27T06:52:07;4.10;37.40
77039;DHT22;65970;50.476;4.840;2024-01-27T06:57:20;4.10;37.20
77039;DHT22;65970;50.476;4.840;2024-01-27T07:02:25;4.00;37.30
77039;DHT22;65970;50.476;4.840;2024-01-27T07:07:27;4.00;37.10
77039;DHT22;65970;50.476;4.840;2024-01-27T07:12:28;4.00;37.00
77039;DHT22;65970;50.476;4.840;2024-01-27T07:17:29;3.90;37.20
77039;DHT22;65970;50.476;4.840;2024-01-27T07:22:29;3.90;37.40
77039;DHT22;65970;50.476;4.840;2024-01-27T07:27:30;3.90;37.40
77039;DHT22;65970;50.476;4.840;2024-01-27T07:32:30;3.90;37.40
77039;DHT22;65970;50.476;4.840;2024-01-27T07:37:31;3.80;37.40
77039;DHT22;65970;50.476;4.840;2024-01-27T07:42:32;3.80;37.30
77039;DHT22;65970;50.476;4.840;2024-01-27T07:47:32;3.80;37.40
77039;DHT22;65970;50.476;4.840;2024-01-27T07:52:33;3.80;37.50
77039;DHT22;65970;50.476;4.840;2024-01-27T07:57:33;3.70;37.50
77039;DHT22;65970;50.476;4.840;2024-01-27T08:02:34;3.70;37.60
77039;DHT22;65970;50.476;4.840;2024-01-27T08:07:34;3.70;37.70
77039;DHT22;65970;50.476;4.840;2024-01-27T08:12:37;3.70;37.70
77039;DHT22;65970;50.476;4.840;2024-01-27T08:17:38;3.70;37.80
77039;DHT22;65970;50.476;4.840;2024-01-27T08:22:38;3.70;38.00
77039;DHT22;65970;50.476;4.840;2024-01-27T08:27:39;3.70;38.10
77039;DHT22;65970;50.476;4.840;2024-01-27T08:32:39;3.70;38.00
77039;DHT22;65970;50.476;4.840;2024-01-27T08:37:40;3.70;38.20
77039;DHT22;65970;50.476;4.840;2024-01-27T08:42:40;3.70;38.30
77039;DHT22;65970;50.476;4.840;2024-01-27T08:47:41;3.70;38.50
77039;DHT22;65970;50.476;4.840;2024-01-27T08:52:41;3.70;38.50
77039;DHT22;65970;50.476;4.840;2024-01-27T08:57:42;3.70;38.70
77039;DHT22;65970;50.476;4.840;2024-01-27T09:02:43;3.70;38.80
77039;DHT22;65970;50.476;4.840;2024-01-27T09:07:43;3.70;38.60
77039;DHT22;65970;50.476;4.840;2024-01-27T09:12:44;3.70;38.40
77039;DHT22;65970;50.476;4.840;2024-01-27T09:17:45;3.70;38.40
77039;DHT22;65970;50.476;4.840;2024-01-27T09:22:45;3.80;38.30
77039;DHT22;65970;50.476;4.840;2024-01-27T09:27:46;3.80;38.30
77039;DHT22;65970;50.476;4.840;2024-01-27T09:32:46;3.80;38.30
77039;DHT22;65970;50.476;4.840;2024-01-27T09:37:47;3.80;38.40
77039;DHT22;65970;50.476;4.840;2024-01-27T09:42:59;3.80;38.40
77039;DHT22;65970;50.476;4.840;2024-01-27T09:48:00;3.80;38.50
77039;DHT22;65970;50.476;4.840;2024-01-27T09:53:01;3.90;38.60
77039;DHT22;65970;50.476;4.840;2024-01-27T09:58:01;3.90;38.70
77039;DHT22;65970;50.476;4.840;2024-01-27T10:03:04;3.90;38.60
77039;DHT22;65970;50.476;4.840;2024-01-27T10:08:08;4.00;38.70
77039;DHT22;65970;50.476;4.840;2024-01-27T10:13:08;4.00;38.60
77039;DHT22;65970;50.476;4.840;2024-01-27T10:18:10;4.00;38.70
77039;DHT22;65970;50.476;4.840;2024-01-27T10:23:12;4.10;38.80
77039;DHT22;65970;50.476;4.840;2024-01-27T10:28:13;4.10;37.90
77039;DHT22;65970;50.476;4.840;2024-01-27T10:33:13;4.20;38.70
77039;DHT22;65970;50.476;4.840;2024-01-27T10:38:14;4.20;38.70
77039;DHT22;65970;50.476;4.840;2024-01-27T10:43:17;4.30;38.90
77039;DHT22;65970;50.476;4.840;2024-01-27T10:48:19;4.30;38.90
77039;DHT22;65970;50.476;4.840;2024-01-27T10:53:23;4.40;38.90
77039;DHT22;65970;50.476;4.840;2024-01-27T10:58:24;4.40;39.00
77039;DHT22;65970;50.476;4.840;2024-01-27T11:03:25;4.50;39.10
77039;DHT22;65970;50.476;4.840;2024-01-27T11:08:27;4.50;39.20
77039;DHT22;65970;50.476;4.840;2024-01-27T11:13:30;4.60;39.20
77039;DHT22;65970;50.476;4.840;2024-01-27T11:18:32;4.70;39.40
77039;DHT22;65970;50.476;4.840;2024-01-27T11:23:34;4.70;39.30
77039;DHT22;65970;50.476;4.840;2024-01-27T11:28:36;4.80;39.40
77039;DHT22;65970;50.476;4.840;2024-01-27T11:33:44;4.80;39.60
77039;DHT22;65970;50.476;4.840;2024-01-27T11:38:45;4.90;39.80
77039;DHT22;65970;50.476;4.840;2024-01-27T11:43:55;5.00;39.90
77039;DHT22;65970;50.476;4.840;2024-01-27T11:48:56;5.00;39.70
77039;DHT22;65970;50.476;4.840;2024-01-27T11:53:56;5.10;39.90
77039;DHT22;65970;50.476;4.840;2024-01-27T11:58:57;5.10;39.80
77039;DHT22;65970;50.476;4.840;2024-01-27T12:03:57;5.20;39.80
77039;DHT22;65970;50.476;4.840;2024-01-27T12:09:00;5.30;39.80
77039;DHT22;65970;50.476;4.840;2024-01-27T12:14:01;5.30;39.80
77039;DHT22;65970;50.476;4.840;2024-01-27T12:19:01;5.30;39.70
77039;DHT22;65970;50.476;4.840;2024-01-27T12:24:02;5.40;39.80
77039;DHT22;65970;50.476;4.840;2024-01-27T12:29:03;5.50;40.00
77039;DHT22;65970;50.476;4.840;2024-01-27T12:34:03;5.50;40.00
77039;DHT22;65970;50.476;4.840;2024-01-27T12:39:04;5.60;40.00
77039;DHT22;65970;50.476;4.840;2024-01-27T12:44:06;5.60;40.00
77039;DHT22;65970;50.476;4.840;2024-01-27T12:49:08;5.70;40.20
77039;DHT22;65970;50.476;4.840;2024-01-27T12:54:08;5.70;40.40
77039;DHT22;65970;50.476;4.840;2024-01-27T12:59:09;5.80;40.50
77039;DHT22;65970;50.476;4.840;2024-01-27T13:04:10;5.90;40.70
77039;DHT22;65970;50.476;4.840;2024-01-27T13:09:11;5.90;40.90
77039;DHT22;65970;50.476;4.840;2024-01-27T13:14:11;6.00;41.00
77039;DHT22;65970;50.476;4.840;2024-01-27T13:19:12;6.10;41.20
77039;DHT22;65970;50.476;4.840;2024-01-27T13:24:12;6.20;41.20
77039;DHT22;65970;50.476;4.840;2024-01-27T13:29:13;6.20;41.20
77039;DHT22;65970;50.476;4.840;2024-01-27T13:34:13;6.30;41.50
77039;DHT22;65970;50.476;4.840;2024-01-27T13:39:14;6.40;41.60
77039;DHT22;65970;50.476;4.840;2024-01-27T13:44:14;6.40;41.70
77039;DHT22;65970;50.476;4.840;2024-01-27T13:49:15;6.50;41.90
77039;DHT22;65970;50.476;4.840;2024-01-27T13:54:15;6.50;42.00
77039;DHT22;65970;50.476;4.840;2024-01-27T13:59:16;6.60;42.10
77039;DHT22;65970;50.476;4.840;2024-01-27T14:04:16;6.70;42.20
77039;DHT22;65970;50.476;4.840;2024-01-27T14:09:17;6.70;42.30
77039;DHT22;65970;50.476;4.840;2024-01-27T14:14:18;6.80;42.40
77039;DHT22;65970;50.476;4.840;2024-01-27T14:19:18;6.80;42.50
77039;DHT22;65970;50.476;4.840;2024-01-27T14:24:19;6.90;42.60
77039;DHT22;65970;50.476;4.840;2024-01-27T14:29:19;7.00;42.70
77039;DHT22;65970;50.476;4.840;2024-01-27T14:34:20;7.00;42.80
77039;DHT22;65970;50.476;4.840;2024-01-27T14:39:20;7.10;43.00
77039;DHT22;65970;50.476;4.840;2024-01-27T14:44:21;7.10;43.00
77039;DHT22;65970;50.476;4.840;2024-01-27T14:49:21;7.10;43.10
77039;DHT22;65970;50.476;4.840;2024-01-27T14:54:22;7.10;43.20
77039;DHT22;65970;50.476;4.840;2024-01-27T14:59:22;7.20;43.20
77039;DHT22;65970;50.476;4.840;2024-01-27T15:04:24;7.20;43.20
77039;DHT22;65970;50.476;4.840;2024-01-27T15:09:25;7.20;43.30
77039;DHT22;65970;50.476;4.840;2024-01-27T15:14:25;7.20;43.50
77039;DHT22;65970;50.476;4.840;2024-01-27T15:19:26;7.20;43.50
77039;DHT22;65970;50.476;4.840;2024-01-27T15:24:26;7.30;43.80
77039;DHT22;65970;50.476;4.840;2024-01-27T15:29:27;7.30;43.80
77039;DHT22;65970;50.476;4.840;2024-01-27T15:34:27;7.30;43.90
77039;DHT22;65970;50.476;4.840;2024-01-27T15:39:30;7.30;43.90
77039;DHT22;65970;50.476;4.840;2024-01-27T15:44:31;7.30;44.10
77039;DHT22;65970;50.476;4.840;2024-01-27T15:49:31;7.30;44.10
77039;DHT22;65970;50.476;4.840;2024-01-27T15:54:32;7.30;44.10
77039;DHT22;65970;50.476;4.840;2024-01-27T15:59:32;7.30;44.10
77039;DHT22;65970;50.476;4.840;2024-01-27T16:04:33;7.30;44.30
77039;DHT22;65970;50.476;4.840;2024-01-27T16:09:33;7.30;44.30
77039;DHT22;65970;50.476;4.840;2024-01-27T16:14:34;7.30;44.30
77039;DHT22;65970;50.476;4.840;2024-01-27T16:19:34;7.30;44.50
77039;DHT22;65970;50.476;4.840;2024-01-27T16:24:35;7.30;43.50
77039;DHT22;65970;50.476;4.840;2024-01-27T16:29:36;7.30;44.40
77039;DHT22;65970;50.476;4.840;2024-01-27T16:34:36;7.30;44.30
77039;DHT22;65970;50.476;4.840;2024-01-27T16:39:37;7.30;44.30
77039;DHT22;65970;50.476;4.840;2024-01-27T16:44:37;7.30;43.30
77039;DHT22;65970;50.476;4.840;2024-01-27T16:49:38;7.30;44.20
77039;DHT22;65970;50.476;4.840;2024-01-27T16:54:38;7.20;43.90
77039;DHT22;65970;50.476;4.840;2024-01-27T16:59:39;7.30;44.00
77039;DHT22;65970;50.476;4.840;2024-01-27T17:04:40;7.20;43.90
77039;DHT22;65970;50.476;4.840;2024-01-27T17:09:40;7.20;43.80
77039;DHT22;65970;50.476;4.840;2024-01-27T17:14:41;7.20;43.90
77039;DHT22;65970;50.476;4.840;2024-01-27T17:19:41;7.20;43.80
77039;DHT22;65970;50.476;4.840;2024-01-27T17:24:42;7.20;43.90
77039;DHT22;65970;50.476;4.840;2024-01-27T17:29:43;7.20;43.70
77039;DHT22;65970;50.476;4.840;2024-01-27T17:34:43;7.10;43.00
77039;DHT22;65970;50.476;4.840;2024-01-27T17:39:44;7.10;42.30
77039;DHT22;65970;50.476;4.840;2024-01-27T17:44:44;7.10;41.90
77039;DHT22;65970;50.476;4.840;2024-01-27T17:49:45;7.10;41.80
77039;DHT22;65970;50.476;4.840;2024-01-27T17:54:46;7.10;40.50
77039;DHT22;65970;50.476;4.840;2024-01-27T17:59:46;7.10;40.10
77039;DHT22;65970;50.476;4.840;2024-01-27T18:04:47;7.00;39.80
77039;DHT22;65970;50.476;4.840;2024-01-27T18:09:47;7.00;38.10
77039;DHT22;65970;50.476;4.840;2024-01-27T18:14:48;7.00;37.60
77039;DHT22;65970;50.476;4.840;2024-01-27T18:19:48;6.90;37.30
77039;DHT22;65970;50.476;4.840;2024-01-27T18:24:49;6.90;37.00
77039;DHT22;65970;50.476;4.840;2024-01-27T18:29:50;6.90;36.80
77039;DHT22;65970;50.476;4.840;2024-01-27T18:34:50;6.90;36.90
77039;DHT22;65970;50.476;4.840;2024-01-27T18:39:51;6.90;36.90
77039;DHT22;65970;50.476;4.840;2024-01-27T18:44:51;6.80;37.00
77039;DHT22;65970;50.476;4.840;2024-01-27T18:49:52;6.80;37.10
77039;DHT22;65970;50.476;4.840;2024-01-27T18:54:52;6.80;37.20
77039;DHT22;65970;50.476;4.840;2024-01-27T18:59:53;6.80;37.30
77039;DHT22;65970;50.476;4.840;2024-01-27T19:04:53;6.80;37.50
77039;DHT22;65970;50.476;4.840;2024-01-27T19:09:54;6.70;37.50
77039;DHT22;65970;50.476;4.840;2024-01-27T19:14:54;6.70;37.60
77039;DHT22;65970;50.476;4.840;2024-01-27T19:19:55;6.70;37.40
77039;DHT22;65970;50.476;4.840;2024-01-27T19:24:55;6.70;37.60
77039;DHT22;65970;50.476;4.840;2024-01-27T19:29:56;6.70;37.60
77039;DHT22;65970;50.476;4.840;2024-01-27T19:34:57;6.60;37.50
77039;DHT22;65970;50.476;4.840;2024-01-27T19:39:58;6.60;38.00
77039;DHT22;65970;50.476;4.840;2024-01-27T19:44:58;6.60;37.60
77039;DHT22;65970;50.476;4.840;2024-01-27T19:49:59;6.60;37.50
77039;DHT22;65970;50.476;4.840;2024-01-27T19:54:59;6.50;37.50
77039;DHT22;65970;50.476;4.840;2024-01-27T20:00:00;6.50;36.90
77039;DHT22;65970;50.476;4.840;2024-01-27T20:05:00;6.50;36.60
77039;DHT22;65970;50.476;4.840;2024-01-27T20:10:01;6.40;36.50
77039;DHT22;65970;50.476;4.840;2024-01-27T20:15:02;6.40;36.30
77039;DHT22;65970;50.476;4.840;2024-01-27T20:20:02;6.40;36.00
77039;DHT22;65970;50.476;4.840;2024-01-27T20:25:03;6.30;35.90
77039;DHT22;65970;50.476;4.840;2024-01-27T20:30:04;6.30;35.80
77039;DHT22;65970;50.476;4.840;2024-01-27T20:35:05;6.20;36.10
77039;DHT22;65970;50.476;4.840;2024-01-27T20:40:06;6.20;35.80
77039;DHT22;65970;50.476;4.840;2024-01-27T20:45:07;6.20;35.70
77039;DHT22;65970;50.476;4.840;2024-01-27T20:50:08;6.10;35.70
77039;DHT22;65970;50.476;4.840;2024-01-27T20:55:08;6.10;35.90
77039;DHT22;65970;50.476;4.840;2024-01-27T21:00:09;6.10;35.40
77039;DHT22;65970;50.476;4.840;2024-01-27T21:05:10;6.00;35.40
77039;DHT22;65970;50.476;4.840;2024-01-27T21:10:10;6.00;35.80
77039;DHT22;65970;50.476;4.840;2024-01-27T21:15:11;5.90;35.60
77039;DHT22;65970;50.476;4.840;2024-01-27T21:20:12;5.90;36.10
77039;DHT22;65970;50.476;4.840;2024-01-27T21:25:12;5.90;36.30
77039;DHT22;65970;50.476;4.840;2024-01-27T21:30:13;5.80;36.40
77039;DHT22;65970;50.476;4.840;2024-01-27T21:35:14;5.80;36.40
77039;DHT22;65970;50.476;4.840;2024-01-27T21:40:14;5.70;36.40
77039;DHT22;65970;50.476;4.840;2024-01-27T21:45:15;5.80;36.90
77039;DHT22;65970;50.476;4.840;2024-01-27T21:50:15;5.70;36.50
77039;DHT22;65970;50.476;4.840;2024-01-27T21:55:16;5.70;37.00
77039;DHT22;65970;50.476;4.840;2024-01-27T22:00:17;5.60;36.80
77039;DHT22;65970;50.476;4.840;2024-01-27T22:05:18;5.60;36.90
77039;DHT22;65970;50.476;4.840;2024-01-27T22:10:19;5.60;36.90
77039;DHT22;65970;50.476;4.840;2024-01-27T22:15:19;5.60;36.50
77039;DHT22;65970;50.476;4.840;2024-01-27T22:20:20;5.50;36.60
77039;DHT22;65970;50.476;4.840;2024-01-27T22:25:20;5.50;36.30
77039;DHT22;65970;50.476;4.840;2024-01-27T22:30:21;5.40;36.40
77039;DHT22;65970;50.476;4.840;2024-01-27T22:35:21;5.40;36.80
77039;DHT22;65970;50.476;4.840;2024-01-27T22:40:22;5.40;36.70
77039;DHT22;65970;50.476;4.840;2024-01-27T22:45:23;5.30;36.70
77039;DHT22;65970;50.476;4.840;2024-01-27T22:50:24;5.30;36.90
77039;DHT22;65970;50.476;4.840;2024-01-27T22:55:24;5.30;37.10
77039;DHT22;65970;50.476;4.840;2024-01-27T23:00:25;5.30;37.00
77039;DHT22;65970;50.476;4.840;2024-01-27T23:05:26;5.20;36.80
77039;DHT22;65970;50.476;4.840;2024-01-27T23:10:27;5.20;36.90
77039;DHT22;65970;50.476;4.840;2024-01-27T23:15:28;5.20;36.70
77039;DHT22;65970;50.476;4.840;2024-01-27T23:20:29;5.10;37.00
77039;DHT22;65970;50.476;4.840;2024-01-27T23:25:29;5.10;36.80
77039;DHT22;65970;50.476;4.840;2024-01-27T23:30:30;5.10;36.90
77039;DHT22;65970;50.476;4.840;2024-01-27T23:35:31;5.10;36.80
77039;DHT22;65970;50.476;4.840;2024-01-27T23:40:32;5.00;36.60
77039;DHT22;65970;50.476;4.840;2024-01-27T23:45:32;5.00;36.50
77039;DHT22;65970;50.476;4.840;2024-01-27T23:50:33;4.90;36.60
77039;DHT22;65970;50.476;4.840;2024-01-27T23:55:37;4.90;36.90
